Time;durP1;ratioP1;P1;durP2;ratioP2;P2;SDS_P1;SDS_P2;PMS_P1;PMS_P2;Temp;Humidity;BMP_temperature;BMP_pressure;BME280_temperature;BME280_humidity;BME280_pressure;Samples;Min_cycle;Max_cycle;Signal;HPM_P1;HPM_P2
2021/12/19 00:01:03;;;;;;;8.98;2.58;;;;;;;;;;4992709;28;20116;-60
2021/12/19 00:11:08;;;;;;;7.93;2.63;;;;;;;;;;5007975;28;20038;-59
2021/12/19 00:13:34;;;;;;;7.15;2.53;;;;;;;;;;5008471;28;20092;-60
2021/12/19 00:16:00;;;;;;;12.02;3.03;;;;;;;;;;5008968;28;20530;-60
2021/12/19 00:18:26;;;;;;;8.73;3.28;;;;;;;;;;5007641;28;20042;-60
2021/12/19 00:20:52;;;;;;;10.77;3.33;;;;;;;;;;5008381;28;20041;-60
2021/12/19 00:23:17;;;;;;;8.98;2.95;;;;;;;;;;5005549;28;20037;-60
2021/12/19 00:25:43;;;;;;;5.68;2.53;;;;;;;;;;5006717;28;20078;-60
2021/12/19 00:28:09;;;;;;;5.90;2.80;;;;;;;;;;5007561;28;20046;-60
2021/12/19 00:30:35;;;;;;;9.60;3.00;;;;;;;;;;5006766;28;20046;-60
2021/12/19 00:33:01;;;;;;;6.22;2.83;;;;;;;;;;5006980;28;20461;-59
2021/12/19 00:35:27;;;;;;;6.20;2.60;;;;;;;;;;5006989;28;20041;-60
2021/12/19 00:37:53;;;;;;;4.30;2.33;;;;;;;;;;5007355;28;20153;-60
2021/12/19 00:40:19;;;;;;;7.22;2.75;;;;;;;;;;5007988;28;20037;-60
2021/12/19 00:42:51;;;;;;;6.65;2.53;;;;;;;;;;5007021;28;20092;-60
2021/12/19 00:45:27;;;;;;;9.68;2.70;;;;;;;;;;4991477;28;20132;-59
2021/12/19 00:47:53;;;;;;;7.88;2.50;;;;;;;;;;5004944;28;20549;-59
2021/12/19 00:50:19;;;;;;;6.38;2.53;;;;;;;;;;5007231;28;20033;-59
2021/12/19 00:52:47;;;;;;;9.10;2.42;;;;;;;;;;5007651;28;20042;-59
2021/12/19 00:55:16;;;;;;;10.30;2.53;;;;;;;;;;5007469;28;20060;-59
2021/12/19 00:57:42;;;;;;;6.63;2.58;;;;;;;;;;5007852;28;20092;-59
2021/12/19 01:00:10;;;;;;;6.57;2.95;;;;;;;;;;4994216;28;20630;-58
2021/12/19 01:02:36;;;;;;;10.40;2.53;;;;;;;;;;5006440;28;20041;-59
2021/12/19 01:05:02;;;;;;;8.40;3.10;;;;;;;;;;5005213;28;20390;-59
2021/12/19 01:07:28;;;;;;;6.72;3.10;;;;;;;;;;4989228;28;20045;-59
2021/12/19 01:09:54;;;;;;;12.95;3.35;;;;;;;;;;5009025;28;20530;-59
2021/12/19 01:12:20;;;;;;;9.05;2.85;;;;;;;;;;5004564;28;20041;-59
2021/12/19 01:14:46;;;;;;;8.48;3.83;;;;;;;;;;5007635;28;20066;-59
2021/12/19 01:17:12;;;;;;;9.52;3.88;;;;;;;;;;5008061;28;20033;-59
2021/12/19 01:19:38;;;;;;;12.82;4.10;;;;;;;;;;4988633;28;20890;-60
2021/12/19 01:22:04;;;;;;;8.95;3.85;;;;;;;;;;5007671;28;20772;-59
2021/12/19 01:24:30;;;;;;;8.00;3.53;;;;;;;;;;5006863;28;20124;-60
2021/12/19 01:26:56;;;;;;;12.13;3.80;;;;;;;;;;5006307;28;20046;-59
2021/12/19 01:29:22;;;;;;;9.50;3.63;;;;;;;;;;5005982;28;20042;-60
2021/12/19 01:31:48;;;;;;;9.25;4.80;;;;;;;;;;5007743;28;20034;-60
2021/12/19 01:34:14;;;;;;;19.08;4.93;;;;;;;;;;5009184;28;20050;-60
2021/12/19 01:36:43;;;;;;;12.05;4.30;;;;;;;;;;5007106;28;20406;-60
2021/12/19 01:39:09;;;;;;;11.23;4.32;;;;;;;;;;5009167;28;20045;-60
2021/12/19 01:41:42;;;;;;;9.43;3.85;;;;;;;;;;5007084;28;20104;-60
2021/12/19 01:44:09;;;;;;;10.20;3.67;;;;;;;;;;5008702;28;20502;-62
2021/12/19 01:46:35;;;;;;;8.05;3.67;;;;;;;;;;4996900;28;20135;-61
2021/12/19 01:49:01;;;;;;;9.80;4.20;;;;;;;;;;5008025;28;20810;-60
2021/12/19 01:51:27;;;;;;;13.38;3.72;;;;;;;;;;5007703;28;20043;-60
2021/12/19 01:53:53;;;;;;;11.43;4.35;;;;;;;;;;5007986;28;20540;-60
2021/12/19 01:56:19;;;;;;;15.93;4.97;;;;;;;;;;5008123;28;20402;-59
2021/12/19 01:58:46;;;;;;;15.85;3.85;;;;;;;;;;5009849;28;20037;-60
2021/12/19 02:01:14;;;;;;;9.27;3.92;;;;;;;;;;4992808;28;20049;-61
2021/12/19 02:03:40;;;;;;;11.85;4.45;;;;;;;;;;4975340;28;20041;-60
2021/12/19 02:06:05;;;;;;;13.85;4.70;;;;;;;;;;5010926;28;20041;-60
2021/12/19 02:08:32;;;;;;;9.35;4.22;;;;;;;;;;5010101;28;20088;-60
2021/12/19 02:10:57;;;;;;;10.07;4.00;;;;;;;;;;5007543;28;20802;-59
2021/12/19 02:13:23;;;;;;;9.40;3.65;;;;;;;;;;4989007;28;20034;-61
2021/12/19 02:15:50;;;;;;;7.20;3.58;;;;;;;;;;5008433;28;20048;-60
2021/12/19 02:18:19;;;;;;;9.07;4.30;;;;;;;;;;5008095;28;20034;-59
2021/12/19 02:20:53;;;;;;;14.30;4.05;;;;;;;;;;5009094;28;20030;-59
2021/12/19 02:23:20;;;;;;;8.43;3.88;;;;;;;;;;5004220;28;20155;-60
2021/12/19 02:25:46;;;;;;;7.20;3.25;;;;;;;;;;5007057;28;21362;-60
2021/12/19 02:28:12;;;;;;;16.10;2.90;;;;;;;;;;5006711;28;20545;-60
2021/12/19 02:30:38;;;;;;;15.00;4.38;;;;;;;;;;5004880;28;25994;-59
2021/12/19 02:33:13;;;;;;;2.97;1.15;;;;;;;;;;5004327;28;20041;-61
2021/12/19 02:35:41;;;;;;;4.25;2.20;;;;;;;;;;5005869;28;20034;-59
2021/12/19 02:38:38;;;;;;;12.90;2.58;;;;;;;;;;5006372;28;20037;-60
2021/12/19 02:49:19;;;;;;;4.05;1.50;;;;;;;;;;5008483;28;20152;-61
2021/12/19 02:51:45;;;;;;;4.38;1.42;;;;;;;;;;5009657;28;20050;-62
2021/12/19 02:54:11;;;;;;;4.20;2.05;;;;;;;;;;5010575;28;20052;-60
2021/12/19 02:56:37;;;;;;;3.20;1.23;;;;;;;;;;5009937;28;22746;-59
2021/12/19 02:59:02;;;;;;;5.47;2.47;;;;;;;;;;5008769;28;20053;-59
2021/12/19 03:01:28;;;;;;;6.25;2.63;;;;;;;;;;5007220;28;20120;-59
2021/12/19 03:03:54;;;;;;;3.72;1.50;;;;;;;;;;4992708;28;20045;-58
2021/12/19 03:06:20;;;;;;;3.47;1.50;;;;;;;;;;5009035;28;20034;-59
2021/12/19 03:08:49;;;;;;;1.35;0.77;;;;;;;;;;5008945;28;20064;-60
2021/12/19 03:19:13;;;;;;;2.58;1.17;;;;;;;;;;5001810;28;20065;-58
2021/12/19 03:21:41;;;;;;;3.05;1.27;;;;;;;;;;4992201;28;20479;-59
2021/12/19 03:24:07;;;;;;;12.38;2.40;;;;;;;;;;5009653;28;20112;-59
2021/12/19 03:26:33;;;;;;;2.22;1.02;;;;;;;;;;5008857;28;20050;-60
2021/12/19 03:28:58;;;;;;;5.18;2.20;;;;;;;;;;5010760;28;20189;-60
2021/12/19 03:31:24;;;;;;;3.72;1.85;;;;;;;;;;5010024;28;20116;-60
2021/12/19 03:33:50;;;;;;;5.18;1.73;;;;;;;;;;5011699;28;20079;-59
2021/12/19 03:36:16;;;;;;;6.18;2.25;;;;;;;;;;5011035;28;20037;-59
2021/12/19 03:38:44;;;;;;;4.68;2.08;;;;;;;;;;4980608;28;20047;-60
2021/12/19 03:41:22;;;;;;;3.38;1.38;;;;;;;;;;5010118;28;20038;-59
2021/12/19 03:43:48;;;;;;;4.22;1.67;;;;;;;;;;5009666;28;20042;-60
2021/12/19 03:46:14;;;;;;;7.85;3.35;;;;;;;;;;5011936;28;20809;-59
2021/12/19 03:48:40;;;;;;;2.47;1.48;;;;;;;;;;5010356;28;20056;-59
2021/12/19 03:51:06;;;;;;;5.00;2.42;;;;;;;;;;5011100;28;20037;-61
2021/12/19 03:53:32;;;;;;;3.33;0.90;;;;;;;;;;5013349;28;20075;-60
2021/12/19 03:55:58;;;;;;;4.55;2.03;;;;;;;;;;5011368;28;20045;-59
2021/12/19 03:58:24;;;;;;;6.75;1.95;;;;;;;;;;5007055;28;20104;-59
2021/12/19 04:00:51;;;;;;;2.47;1.48;;;;;;;;;;5012861;28;20040;-59
2021/12/19 04:03:19;;;;;;;6.18;3.55;;;;;;;;;;5008553;28;21798;-59
2021/12/19 04:05:46;;;;;;;3.92;1.88;;;;;;;;;;5007270;28;20053;-59
2021/12/19 04:08:12;;;;;;;4.00;2.25;;;;;;;;;;4992351;28;20080;-60
2021/12/19 04:10:38;;;;;;;3.58;1.73;;;;;;;;;;5009178;28;20090;-59
2021/12/19 04:13:04;;;;;;;6.10;2.80;;;;;;;;;;5010370;28;20052;-58
2021/12/19 04:15:30;;;;;;;7.53;2.53;;;;;;;;;;5009355;28;20156;-59
2021/12/19 04:17:56;;;;;;;2.45;1.02;;;;;;;;;;5011173;28;20180;-60
2021/12/19 04:20:22;;;;;;;5.88;3.63;;;;;;;;;;5008811;28;20116;-60
2021/12/19 04:22:48;;;;;;;15.40;3.85;;;;;;;;;;5010265;28;21834;-58
2021/12/19 04:25:14;;;;;;;5.20;1.90;;;;;;;;;;4990746;28;20546;-60
2021/12/19 04:27:41;;;;;;;5.15;2.63;;;;;;;;;;5006725;28;20058;-60
2021/12/19 04:30:08;;;;;;;10.32;2.95;;;;;;;;;;5007607;28;20033;-60
2021/12/19 04:32:39;;;;;;;9.55;3.55;;;;;;;;;;5008818;28;20041;-60
2021/12/19 04:35:06;;;;;;;7.25;3.30;;;;;;;;;;5011456;28;20080;-60
2021/12/19 04:40:21;;;;;;;6.10;2.72;;;;;;;;;;5009347;28;20040;-60
2021/12/19 04:51:18;;;;;;;6.95;2.95;;;;;;;;;;5008655;28;20475;-59
2021/12/19 05:01:53;;;;;;;8.65;4.57;;;;;;;;;;5011631;28;20615;-58
2021/12/19 05:04:51;;;;;;;6.95;2.70;;;;;;;;;;5010998;28;20038;-59
2021/12/19 05:15:11;;;;;;;4.47;2.17;;;;;;;;;;5010228;28;20057;-60
2021/12/19 05:17:37;;;;;;;7.20;2.58;;;;;;;;;;5010383;28;20049;-62
2021/12/19 05:20:11;;;;;;;8.73;3.30;;;;;;;;;;5010974;28;20437;-58
2021/12/19 05:22:45;;;;;;;5.55;2.50;;;;;;;;;;5009831;28;20041;-60
2021/12/19 05:25:20;;;;;;;6.32;2.88;;;;;;;;;;5010108;28;20057;-60
2021/12/19 05:27:50;;;;;;;10.60;3.65;;;;;;;;;;5011097;28;20171;-60
2021/12/19 05:30:17;;;;;;;7.65;3.08;;;;;;;;;;5011343;28;20043;-60
2021/12/19 05:32:43;;;;;;;4.40;1.48;;;;;;;;;;5010041;28;20038;-59
2021/12/19 05:35:10;;;;;;;6.68;2.83;;;;;;;;;;4993936;28;20525;-60
2021/12/19 05:45:49;;;;;;;8.50;3.67;;;;;;;;;;5009893;28;20080;-60
2021/12/19 05:48:15;;;;;;;6.97;2.83;;;;;;;;;;5011264;28;20954;-61
2021/12/19 05:50:42;;;;;;;3.80;2.50;;;;;;;;;;5011056;28;20049;-61
2021/12/19 05:53:09;;;;;;;9.45;3.30;;;;;;;;;;5010709;28;20049;-60
2021/12/19 05:55:35;;;;;;;5.30;3.05;;;;;;;;;;5011598;28;20033;-61
2021/12/19 05:58:01;;;;;;;5.25;2.10;;;;;;;;;;5011031;28;20063;-60
2021/12/19 06:00:27;;;;;;;5.18;3.10;;;;;;;;;;5012309;28;20523;-61
2021/12/19 06:02:53;;;;;;;11.65;3.65;;;;;;;;;;5011530;28;20053;-61
2021/12/19 06:05:19;;;;;;;9.65;3.17;;;;;;;;;;5011730;28;20384;-60
2021/12/19 06:07:45;;;;;;;7.72;2.38;;;;;;;;;;5012233;28;20053;-61
2021/12/19 06:10:11;;;;;;;4.40;1.77;;;;;;;;;;5011644;28;20041;-61
2021/12/19 06:12:37;;;;;;;7.57;4.50;;;;;;;;;;5009728;28;20056;-60
2021/12/19 06:15:05;;;;;;;3.65;1.80;;;;;;;;;;5010494;28;20466;-61
2021/12/19 06:17:31;;;;;;;11.15;2.70;;;;;;;;;;5011272;28;20029;-60
2021/12/19 06:19:56;;;;;;;5.60;2.45;;;;;;;;;;5010641;28;20052;-61
2021/12/19 06:22:22;;;;;;;3.90;1.95;;;;;;;;;;5009163;28;20076;-60
2021/12/19 06:24:48;;;;;;;4.22;1.75;;;;;;;;;;5010984;28;20258;-61
2021/12/19 06:27:14;;;;;;;4.65;2.25;;;;;;;;;;5010196;28;20061;-61
2021/12/19 06:29:39;;;;;;;9.35;2.92;;;;;;;;;;5010761;28;20582;-58
2021/12/19 06:32:05;;;;;;;3.88;2.13;;;;;;;;;;5009708;28;20057;-61
2021/12/19 06:34:31;;;;;;;4.53;2.00;;;;;;;;;;5010007;28;20045;-60
2021/12/19 06:36:57;;;;;;;9.73;2.15;;;;;;;;;;5012510;28;20054;-60
2021/12/19 06:39:23;;;;;;;18.77;3.35;;;;;;;;;;5009432;28;20038;-60
2021/12/19 06:41:49;;;;;;;2.45;1.25;;;;;;;;;;5001249;28;20049;-60
2021/12/19 06:44:15;;;;;;;5.00;2.10;;;;;;;;;;5010956;28;20033;-61
2021/12/19 06:46:42;;;;;;;6.63;3.03;;;;;;;;;;5010274;28;20050;-61
2021/12/19 06:49:08;;;;;;;4.93;1.88;;;;;;;;;;5012293;28;20136;-61
2021/12/19 06:51:34;;;;;;;4.43;2.22;;;;;;;;;;5008797;28;20553;-59
2021/12/19 06:54:00;;;;;;;5.53;2.83;;;;;;;;;;5012056;28;20076;-57
2021/12/19 06:56:26;;;;;;;6.28;2.67;;;;;;;;;;5008111;28;20438;-58
2021/12/19 06:58:52;;;;;;;8.10;2.10;;;;;;;;;;5010262;28;20041;-59
2021/12/19 07:01:18;;;;;;;5.35;2.28;;;;;;;;;;5008987;28;20060;-59
2021/12/19 07:03:44;;;;;;;5.50;2.47;;;;;;;;;;5010387;28;20759;-59
2021/12/19 07:06:10;;;;;;;6.25;2.35;;;;;;;;;;5010020;28;20038;-57
2021/12/19 07:08:36;;;;;;;6.72;1.55;;;;;;;;;;5008232;28;20162;-58
2021/12/19 07:11:02;;;;;;;6.70;3.00;;;;;;;;;;5008109;28;20421;-57
2021/12/19 07:13:27;;;;;;;4.57;2.15;;;;;;;;;;5009886;28;20083;-59
2021/12/19 07:15:54;;;;;;;2.78;1.27;;;;;;;;;;5009965;28;20037;-58
2021/12/19 07:18:20;;;;;;;9.32;3.13;;;;;;;;;;5009797;28;20038;-61
2021/12/19 07:20:46;;;;;;;8.55;2.55;;;;;;;;;;5010627;28;20562;-60
2021/12/19 07:23:13;;;;;;;5.07;2.13;;;;;;;;;;5009848;28;22007;-59
2021/12/19 07:25:39;;;;;;;10.82;3.17;;;;;;;;;;5006581;28;20805;-59
2021/12/19 07:28:05;;;;;;;4.10;2.10;;;;;;;;;;5008727;28;20045;-59
2021/12/19 07:30:31;;;;;;;5.57;2.80;;;;;;;;;;5008574;28;20042;-58
2021/12/19 07:32:58;;;;;;;5.93;3.05;;;;;;;;;;5008613;28;20041;-59
2021/12/19 07:35:24;;;;;;;4.57;2.42;;;;;;;;;;5007760;28;20038;-59
2021/12/19 07:37:51;;;;;;;4.95;2.17;;;;;;;;;;5008868;28;20509;-58
2021/12/19 07:40:20;;;;;;;5.13;3.00;;;;;;;;;;5010580;28;20491;-58
2021/12/19 07:42:46;;;;;;;5.93;2.33;;;;;;;;;;4990764;28;20828;-58
2021/12/19 07:45:12;;;;;;;7.28;2.92;;;;;;;;;;5010176;28;20042;-58
2021/12/19 07:47:39;;;;;;;3.33;1.92;;;;;;;;;;5007551;28;20152;-57
2021/12/19 07:50:08;;;;;;;5.05;2.58;;;;;;;;;;5010257;28;20494;-58
2021/12/19 07:52:34;;;;;;;5.38;2.55;;;;;;;;;;4992869;28;20044;-58
2021/12/19 07:55:00;;;;;;;4.93;1.95;;;;;;;;;;5007547;28;20038;-58
2021/12/19 07:57:25;;;;;;;7.30;4.32;;;;;;;;;;4990941;28;20137;-59
2021/12/19 07:59:52;;;;;;;4.50;2.33;;;;;;;;;;5012558;28;20499;-58
2021/12/19 08:02:17;;;;;;;7.10;2.55;;;;;;;;;;5009221;28;20037;-59
2021/12/19 08:04:43;;;;;;;3.35;1.88;;;;;;;;;;5008730;28;20655;-60
2021/12/19 08:07:12;;;;;;;7.22;2.65;;;;;;;;;;5009323;28;20060;-58
2021/12/19 08:09:47;;;;;;;7.68;3.05;;;;;;;;;;4990776;28;20073;-60
2021/12/19 08:12:12;;;;;;;5.22;2.15;;;;;;;;;;5008675;28;20348;-59
2021/12/19 08:14:38;;;;;;;3.85;1.85;;;;;;;;;;5008346;28;20038;-58
2021/12/19 08:17:04;;;;;;;7.05;2.28;;;;;;;;;;5010808;28;20080;-59
2021/12/19 08:19:30;;;;;;;3.55;1.38;;;;;;;;;;5010203;28;20575;-59
2021/12/19 08:21:56;;;;;;;4.65;1.73;;;;;;;;;;5009735;28;20817;-59
2021/12/19 08:24:22;;;;;;;10.43;3.42;;;;;;;;;;5010686;28;20095;-59
2021/12/19 08:26:48;;;;;;;3.47;1.55;;;;;;;;;;5011648;28;20040;-59
2021/12/19 08:29:14;;;;;;;2.28;1.10;;;;;;;;;;5009962;28;20398;-60
2021/12/19 08:31:40;;;;;;;5.47;1.50;;;;;;;;;;5009017;28;20096;-59
2021/12/19 08:34:06;;;;;;;5.00;1.48;;;;;;;;;;5007816;28;20132;-59
2021/12/19 08:36:32;;;;;;;4.78;2.08;;;;;;;;;;5008502;28;20041;-59
2021/12/19 08:38:58;;;;;;;2.92;1.50;;;;;;;;;;4990189;28;20045;-59
2021/12/19 08:41:24;;;;;;;3.90;1.77;;;;;;;;;;5007328;28;20540;-59
2021/12/19 08:43:50;;;;;;;3.15;1.75;;;;;;;;;;5008966;28;20041;-59
2021/12/19 08:46:16;;;;;;;6.43;2.72;;;;;;;;;;5008723;28;20171;-58
2021/12/19 08:48:42;;;;;;;2.35;1.13;;;;;;;;;;5005930;28;20064;-58
2021/12/19 08:51:09;;;;;;;1.95;1.27;;;;;;;;;;5006430;28;20050;-59
2021/12/19 08:53:35;;;;;;;3.55;2.05;;;;;;;;;;5007169;28;20049;-59
2021/12/19 08:56:00;;;;;;;3.65;1.70;;;;;;;;;;5008362;28;20045;-59
2021/12/19 08:58:28;;;;;;;2.42;1.25;;;;;;;;;;5007759;28;20045;-60
2021/12/19 09:00:57;;;;;;;4.13;1.83;;;;;;;;;;5008057;28;20044;-58
2021/12/19 09:03:24;;;;;;;5.75;4.72;;;;;;;;;;4991221;28;20064;-59
2021/12/19 09:05:49;;;;;;;2.17;1.13;;;;;;;;;;5009123;28;20053;-59
2021/12/19 09:08:15;;;;;;;3.00;1.77;;;;;;;;;;5011914;28;20041;-59
2021/12/19 09:10:41;;;;;;;3.85;1.60;;;;;;;;;;5011025;28;20041;-58
2021/12/19 09:13:07;;;;;;;1.85;1.05;;;;;;;;;;5013019;28;20037;-59
2021/12/19 09:15:33;;;;;;;2.97;1.35;;;;;;;;;;4996250;28;20049;-59
2021/12/19 09:17:59;;;;;;;4.03;1.95;;;;;;;;;;5013392;28;20073;-58
2021/12/19 09:20:25;;;;;;;3.45;1.52;;;;;;;;;;5012153;28;20050;-59
2021/12/19 09:22:51;;;;;;;3.35;1.75;;;;;;;;;;5013328;28;20045;-59
2021/12/19 09:25:17;;;;;;;2.22;0.90;;;;;;;;;;5012844;28;20550;-59
2021/12/19 09:27:43;;;;;;;4.40;2.80;;;;;;;;;;5010944;28;20502;-59
2021/12/19 09:30:09;;;;;;;3.75;1.60;;;;;;;;;;5013393;28;20038;-58
2021/12/19 09:32:35;;;;;;;5.32;2.33;;;;;;;;;;4992627;28;20581;-59
2021/12/19 09:35:01;;;;;;;4.00;1.73;;;;;;;;;;4993398;28;20052;-57
2021/12/19 09:37:28;;;;;;;3.97;1.45;;;;;;;;;;5010915;28;20044;-59
2021/12/19 09:39:54;;;;;;;4.35;1.95;;;;;;;;;;5011505;28;20071;-58
2021/12/19 09:42:22;;;;;;;2.35;1.30;;;;;;;;;;5010402;28;20125;-59
2021/12/19 09:44:48;;;;;;;4.85;1.75;;;;;;;;;;5010754;28;20429;-58
2021/12/19 09:47:14;;;;;;;6.07;2.25;;;;;;;;;;5011313;28;20230;-59
2021/12/19 09:49:40;;;;;;;3.75;2.17;;;;;;;;;;5009056;28;20090;-58
2021/12/19 09:52:09;;;;;;;2.00;1.00;;;;;;;;;;5010421;28;20046;-59
2021/12/19 09:54:39;;;;;;;2.15;1.08;;;;;;;;;;5010736;28;20060;-59
2021/12/19 09:57:05;;;;;;;4.68;2.28;;;;;;;;;;5010400;28;20096;-58
2021/12/19 09:59:31;;;;;;;5.10;2.03;;;;;;;;;;5010387;28;20042;-59
2021/12/19 10:01:57;;;;;;;3.53;1.65;;;;;;;;;;5010120;28;20033;-58
2021/12/19 10:04:34;;;;;;;3.97;1.60;;;;;;;;;;4999300;28;20729;-59
2021/12/19 10:07:10;;;;;;;4.50;1.80;;;;;;;;;;5010895;28;20544;-58
2021/12/19 10:09:37;;;;;;;3.38;1.50;;;;;;;;;;5009796;28;20128;-58
2021/12/19 10:12:22;;;;;;;2.92;1.30;;;;;;;;;;5008158;28;20507;-58
2021/12/19 10:14:48;;;;;;;3.40;1.25;;;;;;;;;;5010668;28;20137;-59
2021/12/19 10:17:18;;;;;;;5.88;1.98;;;;;;;;;;5010671;28;20255;-59
2021/12/19 10:19:49;;;;;;;2.33;1.05;;;;;;;;;;5009242;28;20069;-59
2021/12/19 10:22:30;;;;;;;6.25;1.60;;;;;;;;;;5009456;28;20121;-60
2021/12/19 10:25:10;;;;;;;1.52;0.82;;;;;;;;;;5009637;28;20033;-59
2021/12/19 10:27:35;;;;;;;1.90;0.90;;;;;;;;;;5009958;28;20057;-59
2021/12/19 10:30:02;;;;;;;1.95;1.38;;;;;;;;;;5009778;28;20081;-59
2021/12/19 10:32:28;;;;;;;3.00;1.75;;;;;;;;;;5009417;28;20045;-59
2021/12/19 10:35:13;;;;;;;1.63;1.00;;;;;;;;;;5010912;28;20045;-59
2021/12/19 10:37:39;;;;;;;2.03;1.10;;;;;;;;;;4988917;28;20042;-59
2021/12/19 10:40:05;;;;;;;1.65;0.95;;;;;;;;;;5010670;28;20037;-58
2021/12/19 10:42:42;;;;;;;3.75;2.03;;;;;;;;;;5008572;28;20046;-58
2021/12/19 10:47:52;;;;;;;1.35;0.82;;;;;;;;;;5009177;28;20103;-58
2021/12/19 10:50:18;;;;;;;4.45;1.90;;;;;;;;;;5009241;28;20612;-58
2021/12/19 10:52:43;;;;;;;5.70;1.55;;;;;;;;;;4991624;28;20060;-58
2021/12/19 10:55:11;;;;;;;3.25;1.75;;;;;;;;;;5011202;28;20033;-57
2021/12/19 10:57:38;;;;;;;3.95;2.00;;;;;;;;;;5009359;28;20049;-59
2021/12/19 11:00:23;;;;;;;3.03;1.90;;;;;;;;;;5000021;28;20052;-59
2021/12/19 11:02:49;;;;;;;2.70;1.75;;;;;;;;;;5012011;28;20750;-58
2021/12/19 11:05:34;;;;;;;2.78;1.45;;;;;;;;;;5011563;28;20049;-58
2021/12/19 11:08:04;;;;;;;2.58;1.55;;;;;;;;;;5010720;28;20501;-58
2021/12/19 11:10:31;;;;;;;4.05;2.08;;;;;;;;;;5011473;28;20046;-58
2021/12/19 11:13:06;;;;;;;2.63;1.77;;;;;;;;;;5012287;28;20056;-59
2021/12/19 11:15:32;;;;;;;3.53;1.80;;;;;;;;;;5012084;28;20037;-58
2021/12/19 11:17:58;;;;;;;2.92;1.90;;;;;;;;;;5011639;28;20037;-59
2021/12/19 11:20:24;;;;;;;3.55;2.03;;;;;;;;;;5010702;28;20252;-58
2021/12/19 11:22:50;;;;;;;2.88;1.52;;;;;;;;;;5013937;28;20121;-59
2021/12/19 11:25:16;;;;;;;9.35;2.28;;;;;;;;;;5012538;28;20073;-59
2021/12/19 11:27:43;;;;;;;2.97;1.33;;;;;;;;;;5013307;28;20053;-59
2021/12/19 11:30:11;;;;;;;2.90;1.50;;;;;;;;;;5012544;28;20034;-59
2021/12/19 11:32:48;;;;;;;4.03;2.15;;;;;;;;;;5012536;28;21682;-59
2021/12/19 11:35:18;;;;;;;4.18;2.08;;;;;;;;;;5012882;28;20038;-58
2021/12/19 11:37:49;;;;;;;4.63;1.83;;;;;;;;;;5011088;28;20088;-59
2021/12/19 11:40:16;;;;;;;3.75;2.00;;;;;;;;;;5010155;28;20038;-59
2021/12/19 11:42:42;;;;;;;3.03;1.67;;;;;;;;;;4991550;28;20026;-59
2021/12/19 11:45:39;;;;;;;2.17;1.17;;;;;;;;;;5010322;28;20061;-59
2021/12/19 11:48:15;;;;;;;2.53;1.60;;;;;;;;;;5006544;28;20056;-59
2021/12/19 11:50:48;;;;;;;1.73;0.90;;;;;;;;;;5010929;28;20042;-59
2021/12/19 11:53:17;;;;;;;9.98;2.00;;;;;;;;;;4992228;28;20104;-59
2021/12/19 11:55:47;;;;;;;2.67;1.63;;;;;;;;;;5008784;28;20037;-59
2021/12/19 11:58:15;;;;;;;4.07;1.90;;;;;;;;;;5008753;28;20096;-59
2021/12/19 12:00:40;;;;;;;3.10;1.58;;;;;;;;;;5007263;28;20034;-59
2021/12/19 12:03:12;;;;;;;2.75;1.52;;;;;;;;;;5008835;28;20152;-58
2021/12/19 12:05:39;;;;;;;2.40;1.50;;;;;;;;;;5007917;28;20806;-58
2021/12/19 12:08:05;;;;;;;1.33;0.73;;;;;;;;;;5008737;28;20076;-59
2021/12/19 12:10:53;;;;;;;7.78;1.75;;;;;;;;;;5009828;28;20037;-59
2021/12/19 12:13:26;;;;;;;1.65;0.90;;;;;;;;;;5010173;28;20352;-58
2021/12/19 12:15:59;;;;;;;3.70;0.93;;;;;;;;;;5010643;28;20044;-58
2021/12/19 12:18:33;;;;;;;2.80;1.33;;;;;;;;;;5007036;28;20148;-59
2021/12/19 12:21:24;;;;;;;1.23;0.70;;;;;;;;;;4991845;28;20038;-58
2021/12/19 12:23:55;;;;;;;1.92;1.05;;;;;;;;;;5009420;28;20889;-59
2021/12/19 12:26:27;;;;;;;2.63;1.40;;;;;;;;;;5010237;28;20052;-59
2021/12/19 12:28:53;;;;;;;1.15;0.55;;;;;;;;;;5009612;28;20112;-59
2021/12/19 12:31:19;;;;;;;1.17;0.70;;;;;;;;;;5011133;28;20042;-58
2021/12/19 12:33:44;;;;;;;2.33;1.15;;;;;;;;;;5010497;28;20061;-59
2021/12/19 12:36:10;;;;;;;0.90;0.45;;;;;;;;;;5008676;28;20627;-58
2021/12/19 12:38:36;;;;;;;1.38;0.90;;;;;;;;;;5008080;28;20103;-60
2021/12/19 12:41:09;;;;;;;1.23;0.70;;;;;;;;;;5009437;28;20045;-60
2021/12/19 12:43:37;;;;;;;4.38;1.58;;;;;;;;;;5008543;28;20433;-59
2021/12/19 12:46:09;;;;;;;2.42;0.77;;;;;;;;;;5009507;28;20049;-59
2021/12/19 12:48:38;;;;;;;2.03;0.82;;;;;;;;;;5008690;28;20699;-59
2021/12/19 12:51:09;;;;;;;2.95;1.17;;;;;;;;;;5009641;28;20061;-59
2021/12/19 12:53:40;;;;;;;1.48;0.70;;;;;;;;;;5007270;28;20402;-58
2021/12/19 12:56:14;;;;;;;1.17;0.65;;;;;;;;;;5009912;28;20034;-59
2021/12/19 12:58:42;;;;;;;1.20;0.60;;;;;;;;;;5009110;28;20038;-59
2021/12/19 13:01:27;;;;;;;0.85;0.47;;;;;;;;;;4994019;28;20041;-58
2021/12/19 13:03:56;;;;;;;0.77;0.47;;;;;;;;;;5008181;28;20052;-59
2021/12/19 13:06:34;;;;;;;0.90;0.40;;;;;;;;;;5007899;28;20034;-60
2021/12/19 13:09:11;;;;;;;0.28;0.25;;;;;;;;;;4996382;28;20071;-59
2021/12/19 13:11:37;;;;;;;0.88;0.63;;;;;;;;;;4986254;28;20379;-59
2021/12/19 13:14:17;;;;;;;0.60;0.60;;;;;;;;;;5007187;28;20054;-58
2021/12/19 13:16:44;;;;;;;2.72;0.75;;;;;;;;;;5008219;28;20049;-59
2021/12/19 13:19:10;;;;;;;1.02;0.50;;;;;;;;;;5008534;28;20041;-59
2021/12/19 13:21:56;;;;;;;0.55;0.40;;;;;;;;;;5007001;28;20690;-59
2021/12/19 13:24:24;;;;;;;1.48;0.60;;;;;;;;;;5007326;28;20046;-59
2021/12/19 13:27:02;;;;;;;1.02;0.50;;;;;;;;;;5007566;28;20110;-60
2021/12/19 13:29:29;;;;;;;1.25;0.50;;;;;;;;;;5005791;28;20063;-60
2021/12/19 13:31:55;;;;;;;0.22;0.22;;;;;;;;;;5007740;28;20052;-60
2021/12/19 13:34:21;;;;;;;1.05;0.52;;;;;;;;;;5005825;28;20141;-60
2021/12/19 13:37:07;;;;;;;0.32;0.30;;;;;;;;;;5007938;28;20061;-58
2021/12/19 13:39:33;;;;;;;0.17;0.17;;;;;;;;;;5006455;28;20462;-60
2021/12/19 13:42:09;;;;;;;0.73;0.50;;;;;;;;;;5008752;28;20041;-59
2021/12/19 13:44:35;;;;;;;1.55;0.73;;;;;;;;;;5008209;28;20121;-60
2021/12/19 13:47:21;;;;;;;0.45;0.32;;;;;;;;;;5007369;28;20069;-58
2021/12/19 13:49:47;;;;;;;0.50;0.32;;;;;;;;;;5008064;28;20058;-59
2021/12/19 13:52:14;;;;;;;1.90;0.70;;;;;;;;;;5008969;28;20072;-59
2021/12/19 13:54:40;;;;;;;1.75;1.00;;;;;;;;;;5010744;28;20541;-59
2021/12/19 13:57:16;;;;;;;2.03;0.63;;;;;;;;;;5012665;28;20037;-59
2021/12/19 13:59:42;;;;;;;0.60;0.30;;;;;;;;;;5010873;28;20041;-57
2021/12/19 14:02:11;;;;;;;1.48;0.70;;;;;;;;;;5011518;28;20051;-59
2021/12/19 14:04:37;;;;;;;0.75;0.50;;;;;;;;;;5012741;28;20062;-60
2021/12/19 14:07:10;;;;;;;1.15;0.55;;;;;;;;;;5010041;28;20506;-58
2021/12/19 14:09:40;;;;;;;1.63;0.90;;;;;;;;;;5011499;28;20435;-58
2021/12/19 14:12:50;;;;;;;1.23;0.45;;;;;;;;;;5011037;28;20037;-59
2021/12/19 14:15:11;;;;;;;0.65;0.30;;;;;;;;;;5007345;28;20590;-58
2021/12/19 14:17:37;;;;;;;1.70;0.77;;;;;;;;;;5008395;28;20072;-59
2021/12/19 14:20:03;;;;;;;4.25;0.60;;;;;;;;;;5011211;28;20556;-59
2021/12/19 14:22:29;;;;;;;1.42;0.60;;;;;;;;;;5010210;28;20076;-59
2021/12/19 14:24:56;;;;;;;1.88;0.70;;;;;;;;;;5010759;28;20425;-59
2021/12/19 14:27:29;;;;;;;0.82;0.40;;;;;;;;;;5010073;28;20045;-59
2021/12/19 14:29:55;;;;;;;0.30;0.30;;;;;;;;;;5009685;28;20077;-59
2021/12/19 14:32:25;;;;;;;1.83;0.65;;;;;;;;;;5009460;28;20129;-59
2021/12/19 14:35:01;;;;;;;0.82;0.40;;;;;;;;;;4991105;28;20132;-58
2021/12/19 14:37:31;;;;;;;0.55;0.30;;;;;;;;;;5008233;28;20026;-58
2021/12/19 14:40:10;;;;;;;1.23;0.60;;;;;;;;;;5008198;28;20060;-58
2021/12/19 14:42:41;;;;;;;0.55;0.30;;;;;;;;;;4991057;28;21102;-58
2021/12/19 14:45:22;;;;;;;1.75;0.65;;;;;;;;;;5008371;28;21667;-58
2021/12/19 14:47:51;;;;;;;0.77;0.73;;;;;;;;;;5005209;28;20053;-62
2021/12/19 14:50:24;;;;;;;0.30;0.30;;;;;;;;;;5009035;28;20569;-61
2021/12/19 14:52:59;;;;;;;1.52;0.55;;;;;;;;;;5006946;28;20524;-61
2021/12/19 14:55:26;;;;;;;0.45;0.28;;;;;;;;;;5006720;28;20762;-60
2021/12/19 14:57:52;;;;;;;0.68;0.50;;;;;;;;;;5007934;28;20049;-59
2021/12/19 15:00:18;;;;;;;2.17;0.88;;;;;;;;;;5009523;28;20034;-58
2021/12/19 15:02:43;;;;;;;0.43;0.30;;;;;;;;;;5009111;28;20486;-57
2021/12/19 15:05:10;;;;;;;0.57;0.38;;;;;;;;;;5008045;28;20587;-58
2021/12/19 15:07:42;;;;;;;0.70;0.40;;;;;;;;;;5006592;28;20642;-57
2021/12/19 15:10:08;;;;;;;1.13;0.38;;;;;;;;;;5008453;28;20038;-59
2021/12/19 15:12:34;;;;;;;0.70;0.60;;;;;;;;;;5009387;28;20037;-59
2021/12/19 15:15:00;;;;;;;1.63;0.70;;;;;;;;;;5008329;28;20045;-59
2021/12/19 15:17:26;;;;;;;0.73;0.55;;;;;;;;;;5007222;28;20145;-60
2021/12/19 15:19:51;;;;;;;0.20;0.20;;;;;;;;;;5008181;28;20181;-59
2021/12/19 15:22:17;;;;;;;3.30;1.40;;;;;;;;;;4994369;28;20029;-59
2021/12/19 15:24:43;;;;;;;0.50;0.32;;;;;;;;;;5007819;28;20053;-58
2021/12/19 15:27:09;;;;;;;0.82;0.50;;;;;;;;;;5007761;28;20074;-60
2021/12/19 15:29:35;;;;;;;0.40;0.30;;;;;;;;;;4990585;28;20523;-59
2021/12/19 15:32:00;;;;;;;1.45;0.70;;;;;;;;;;5008546;28;20045;-61
2021/12/19 15:34:27;;;;;;;0.52;0.40;;;;;;;;;;5008561;28;20152;-59
2021/12/19 15:36:54;;;;;;;0.88;0.50;;;;;;;;;;5008602;28;20042;-59
2021/12/19 15:39:20;;;;;;;0.65;0.40;;;;;;;;;;5005828;28;20036;-59
2021/12/19 15:41:46;;;;;;;1.25;0.70;;;;;;;;;;5009602;28;20045;-59
2021/12/19 15:44:12;;;;;;;1.88;0.57;;;;;;;;;;5007861;28;20064;-59
2021/12/19 15:46:38;;;;;;;0.93;0.47;;;;;;;;;;5005483;28;20114;-59
2021/12/19 15:49:04;;;;;;;0.70;0.40;;;;;;;;;;5007417;28;20053;-59